sensor_id;sensor_type;location;lat;lon;timestamp;P1;durP1;ratioP1;P2;durP2;ratioP2
34200;SDS011;20469;55.638;37.670;2023-08-21T00:00:00;2.13;;;1.75;;
34200;SDS011;20469;55.638;37.670;2023-08-21T00:02:30;2.88;;;1.80;;
34200;SDS011;20469;55.638;37.670;2023-08-21T00:04:58;3.05;;;1.77;;
34200;SDS011;20469;55.638;37.670;2023-08-21T00:07:25;2.35;;;2.15;;
34200;SDS011;20469;55.638;37.670;2023-08-21T00:09:53;2.97;;;2.60;;
34200;SDS011;20469;55.638;37.670;2023-08-21T00:12:21;3.10;;;2.40;;
34200;SDS011;20469;55.638;37.670;2023-08-21T00:14:48;4.07;;;2.97;;
34200;SDS011;20469;55.638;37.670;2023-08-21T00:17:16;3.28;;;2.88;;
34200;SDS011;20469;55.638;37.670;2023-08-21T00:19:43;3.67;;;3.10;;
34200;SDS011;20469;55.638;37.670;2023-08-21T00:22:11;3.70;;;3.40;;
34200;SDS011;20469;55.638;37.670;2023-08-21T00:24:39;4.38;;;3.58;;
34200;SDS011;20469;55.638;37.670;2023-08-21T00:27:09;4.25;;;3.85;;
34200;SDS011;20469;55.638;37.670;2023-08-21T00:29:36;4.88;;;3.83;;
34200;SDS011;20469;55.638;37.670;2023-08-21T00:32:04;4.68;;;4.22;;
34200;SDS011;20469;55.638;37.670;2023-08-21T00:34:33;5.32;;;4.47;;
34200;SDS011;20469;55.638;37.670;2023-08-21T00:37:00;5.80;;;5.20;;
34200;SDS011;20469;55.638;37.670;2023-08-21T00:39:28;6.88;;;4.80;;
34200;SDS011;20469;55.638;37.670;2023-08-21T00:41:55;5.55;;;5.05;;
34200;SDS011;20469;55.638;37.670;2023-08-21T00:44:23;7.75;;;5.72;;
34200;SDS011;20469;55.638;37.670;2023-08-21T00:46:51;5.93;;;5.43;;
34200;SDS011;20469;55.638;37.670;2023-08-21T00:49:19;7.22;;;6.13;;
34200;SDS011;20469;55.638;37.670;2023-08-21T00:51:47;7.80;;;5.18;;
34200;SDS011;20469;55.638;37.670;2023-08-21T00:54:15;6.03;;;5.43;;
34200;SDS011;20469;55.638;37.670;2023-08-21T00:56:43;6.75;;;4.88;;
34200;SDS011;20469;55.638;37.670;2023-08-21T00:59:11;5.82;;;5.22;;
34200;SDS011;20469;55.638;37.670;2023-08-21T01:01:39;5.93;;;5.32;;
34200;SDS011;20469;55.638;37.670;2023-08-21T01:04:08;7.38;;;5.20;;
34200;SDS011;20469;55.638;37.670;2023-08-21T01:06:36;5.68;;;4.70;;
34200;SDS011;20469;55.638;37.670;2023-08-21T01:09:08;6.07;;;4.93;;
34200;SDS011;20469;55.638;37.670;2023-08-21T01:14:13;5.63;;;5.13;;
34200;SDS011;20469;55.638;37.670;2023-08-21T01:16:44;7.72;;;5.43;;
34200;SDS011;20469;55.638;37.670;2023-08-21T01:19:21;7.18;;;5.15;;
34200;SDS011;20469;55.638;37.670;2023-08-21T01:21:52;5.57;;;5.07;;
34200;SDS011;20469;55.638;37.670;2023-08-21T01:24:20;6.18;;;4.65;;
34200;SDS011;20469;55.638;37.670;2023-08-21T01:26:47;10.30;;;5.75;;
34200;SDS011;20469;55.638;37.670;2023-08-21T01:29:15;5.80;;;4.82;;
34200;SDS011;20469;55.638;37.670;2023-08-21T01:31:43;5.65;;;5.05;;
34200;SDS011;20469;55.638;37.670;2023-08-21T01:34:14;6.00;;;4.97;;
34200;SDS011;20469;55.638;37.670;2023-08-21T01:36:42;6.10;;;5.40;;
34200;SDS011;20469;55.638;37.670;2023-08-21T01:39:10;6.20;;;5.18;;
34200;SDS011;20469;55.638;37.670;2023-08-21T01:41:37;6.22;;;5.63;;
34200;SDS011;20469;55.638;37.670;2023-08-21T01:44:05;5.97;;;5.38;;
34200;SDS011;20469;55.638;37.670;2023-08-21T01:46:33;6.07;;;5.07;;
34200;SDS011;20469;55.638;37.670;2023-08-21T01:49:00;5.55;;;5.03;;
34200;SDS011;20469;55.638;37.670;2023-08-21T01:51:28;6.13;;;5.18;;
34200;SDS011;20469;55.638;37.670;2023-08-21T01:53:55;5.88;;;4.72;;
34200;SDS011;20469;55.638;37.670;2023-08-21T01:56:23;6.82;;;4.70;;
34200;SDS011;20469;55.638;37.670;2023-08-21T01:58:51;5.60;;;5.10;;
34200;SDS011;20469;55.638;37.670;2023-08-21T02:01:18;7.85;;;4.88;;
34200;SDS011;20469;55.638;37.670;2023-08-21T02:03:46;5.22;;;4.70;;
34200;SDS011;20469;55.638;37.670;2023-08-21T02:06:14;6.00;;;4.57;;
34200;SDS011;20469;55.638;37.670;2023-08-21T02:08:41;6.20;;;5.35;;
34200;SDS011;20469;55.638;37.670;2023-08-21T02:11:09;5.93;;;5.32;;
34200;SDS011;20469;55.638;37.670;2023-08-21T02:13:37;6.43;;;5.72;;
34200;SDS011;20469;55.638;37.670;2023-08-21T02:16:05;7.68;;;5.78;;
34200;SDS011;20469;55.638;37.670;2023-08-21T02:18:32;6.57;;;5.50;;
34200;SDS011;20469;55.638;37.670;2023-08-21T02:21:00;8.35;;;5.82;;
34200;SDS011;20469;55.638;37.670;2023-08-21T02:23:29;8.00;;;5.60;;
34200;SDS011;20469;55.638;37.670;2023-08-21T02:25:56;6.80;;;6.07;;
34200;SDS011;20469;55.638;37.670;2023-08-21T02:28:24;6.45;;;5.82;;
34200;SDS011;20469;55.638;37.670;2023-08-21T02:30:52;6.22;;;5.63;;
34200;SDS011;20469;55.638;37.670;2023-08-21T02:33:19;7.63;;;6.10;;
34200;SDS011;20469;55.638;37.670;2023-08-21T02:35:49;7.30;;;6.13;;
34200;SDS011;20469;55.638;37.670;2023-08-21T02:38:18;8.55;;;5.95;;
34200;SDS011;20469;55.638;37.670;2023-08-21T02:40:45;6.38;;;5.65;;
34200;SDS011;20469;55.638;37.670;2023-08-21T02:43:14;7.80;;;5.72;;
34200;SDS011;20469;55.638;37.670;2023-08-21T02:45:42;7.05;;;5.75;;
34200;SDS011;20469;55.638;37.670;2023-08-21T02:48:10;8.18;;;5.55;;
34200;SDS011;20469;55.638;37.670;2023-08-21T02:50:38;7.28;;;5.78;;
34200;SDS011;20469;55.638;37.670;2023-08-21T02:53:05;6.68;;;5.55;;
34200;SDS011;20469;55.638;37.670;2023-08-21T02:55:33;6.28;;;4.63;;
34200;SDS011;20469;55.638;37.670;2023-08-21T02:58:01;8.60;;;5.00;;
34200;SDS011;20469;55.638;37.670;2023-08-21T03:00:29;6.15;;;4.65;;
34200;SDS011;20469;55.638;37.670;2023-08-21T03:02:57;6.10;;;5.20;;
34200;SDS011;20469;55.638;37.670;2023-08-21T03:05:24;5.63;;;5.10;;
34200;SDS011;20469;55.638;37.670;2023-08-21T03:07:52;6.43;;;4.85;;
34200;SDS011;20469;55.638;37.670;2023-08-21T03:10:20;4.53;;;4.00;;
34200;SDS011;20469;55.638;37.670;2023-08-21T03:12:49;7.60;;;4.65;;
34200;SDS011;20469;55.638;37.670;2023-08-21T03:15:17;5.93;;;4.28;;
34200;SDS011;20469;55.638;37.670;2023-08-21T03:17:45;5.18;;;4.60;;
34200;SDS011;20469;55.638;37.670;2023-08-21T03:20:12;5.65;;;4.40;;
34200;SDS011;20469;55.638;37.670;2023-08-21T03:22:40;6.18;;;4.53;;
34200;SDS011;20469;55.638;37.670;2023-08-21T03:25:08;7.22;;;4.32;;
34200;SDS011;20469;55.638;37.670;2023-08-21T03:27:35;6.53;;;4.53;;
34200;SDS011;20469;55.638;37.670;2023-08-21T03:30:06;6.40;;;4.03;;
34200;SDS011;20469;55.638;37.670;2023-08-21T03:32:36;4.68;;;3.80;;
34200;SDS011;20469;55.638;37.670;2023-08-21T03:35:04;5.10;;;3.90;;
34200;SDS011;20469;55.638;37.670;2023-08-21T03:37:32;6.45;;;4.38;;
34200;SDS011;20469;55.638;37.670;2023-08-21T03:39:59;4.47;;;3.85;;
34200;SDS011;20469;55.638;37.670;2023-08-21T03:42:28;10.10;;;3.85;;
34200;SDS011;20469;55.638;37.670;2023-08-21T03:44:56;4.65;;;3.75;;
34200;SDS011;20469;55.638;37.670;2023-08-21T03:47:24;5.68;;;3.67;;
34200;SDS011;20469;55.638;37.670;2023-08-21T03:49:51;5.03;;;3.25;;
34200;SDS011;20469;55.638;37.670;2023-08-21T03:52:19;4.88;;;3.30;;
34200;SDS011;20469;55.638;37.670;2023-08-21T03:54:47;8.80;;;3.63;;
34200;SDS011;20469;55.638;37.670;2023-08-21T03:57:15;4.63;;;3.50;;
34200;SDS011;20469;55.638;37.670;2023-08-21T03:59:43;3.80;;;3.45;;
34200;SDS011;20469;55.638;37.670;2023-08-21T04:02:10;5.38;;;3.50;;
34200;SDS011;20469;55.638;37.670;2023-08-21T04:04:38;5.80;;;3.83;;
34200;SDS011;20469;55.638;37.670;2023-08-21T04:07:05;5.30;;;3.65;;
34200;SDS011;20469;55.638;37.670;2023-08-21T04:09:33;6.10;;;3.35;;
34200;SDS011;20469;55.638;37.670;2023-08-21T04:12:01;5.82;;;3.63;;
34200;SDS011;20469;55.638;37.670;2023-08-21T04:14:28;4.43;;;3.30;;
34200;SDS011;20469;55.638;37.670;2023-08-21T04:16:56;4.43;;;3.13;;
34200;SDS011;20469;55.638;37.670;2023-08-21T04:19:23;3.55;;;3.00;;
34200;SDS011;20469;55.638;37.670;2023-08-21T04:21:56;8.55;;;3.00;;
34200;SDS011;20469;55.638;37.670;2023-08-21T04:24:23;8.52;;;3.53;;
34200;SDS011;20469;55.638;37.670;2023-08-21T04:26:51;3.83;;;3.00;;
34200;SDS011;20469;55.638;37.670;2023-08-21T04:29:18;3.70;;;3.20;;
34200;SDS011;20469;55.638;37.670;2023-08-21T04:31:46;4.30;;;2.83;;
34200;SDS011;20469;55.638;37.670;2023-08-21T04:34:14;3.70;;;2.60;;
34200;SDS011;20469;55.638;37.670;2023-08-21T04:36:41;4.88;;;2.90;;
34200;SDS011;20469;55.638;37.670;2023-08-21T04:39:09;4.78;;;2.80;;
34200;SDS011;20469;55.638;37.670;2023-08-21T04:41:36;4.15;;;2.80;;
34200;SDS011;20469;55.638;37.670;2023-08-21T04:44:04;3.15;;;2.53;;
34200;SDS011;20469;55.638;37.670;2023-08-21T04:46:31;4.10;;;2.53;;
34200;SDS011;20469;55.638;37.670;2023-08-21T04:48:59;5.47;;;2.70;;
34200;SDS011;20469;55.638;37.670;2023-08-21T04:51:27;4.85;;;2.50;;
34200;SDS011;20469;55.638;37.670;2023-08-21T04:53:54;4.30;;;2.47;;
34200;SDS011;20469;55.638;37.670;2023-08-21T04:56:22;4.25;;;2.60;;
34200;SDS011;20469;55.638;37.670;2023-08-21T04:58:49;4.40;;;2.63;;
34200;SDS011;20469;55.638;37.670;2023-08-21T05:01:17;4.55;;;2.80;;
34200;SDS011;20469;55.638;37.670;2023-08-21T05:03:45;3.80;;;2.60;;
34200;SDS011;20469;55.638;37.670;2023-08-21T05:06:12;3.95;;;2.38;;
34200;SDS011;20469;55.638;37.670;2023-08-21T05:08:41;15.75;;;6.88;;
34200;SDS011;20469;55.638;37.670;2023-08-21T05:11:09;38.17;;;18.48;;
34200;SDS011;20469;55.638;37.670;2023-08-21T05:13:36;43.63;;;20.77;;
34200;SDS011;20469;55.638;37.670;2023-08-21T05:16:04;9.90;;;5.40;;
34200;SDS011;20469;55.638;37.670;2023-08-21T05:18:32;9.63;;;5.57;;
34200;SDS011;20469;55.638;37.670;2023-08-21T05:20:59;5.15;;;2.83;;
34200;SDS011;20469;55.638;37.670;2023-08-21T05:23:27;8.63;;;3.88;;
34200;SDS011;20469;55.638;37.670;2023-08-21T05:25:54;7.50;;;2.67;;
34200;SDS011;20469;55.638;37.670;2023-08-21T05:28:22;6.35;;;2.55;;
34200;SDS011;20469;55.638;37.670;2023-08-21T05:30:50;5.78;;;2.78;;
34200;SDS011;20469;55.638;37.670;2023-08-21T05:33:17;2.80;;;1.92;;
34200;SDS011;20469;55.638;37.670;2023-08-21T05:35:45;4.03;;;2.25;;
34200;SDS011;20469;55.638;37.670;2023-08-21T05:38:13;4.60;;;2.45;;
34200;SDS011;20469;55.638;37.670;2023-08-21T05:40:40;4.93;;;2.30;;
34200;SDS011;20469;55.638;37.670;2023-08-21T05:43:08;4.82;;;2.17;;
34200;SDS011;20469;55.638;37.670;2023-08-21T05:45:36;5.45;;;2.45;;
34200;SDS011;20469;55.638;37.670;2023-08-21T05:48:04;3.30;;;1.90;;
34200;SDS011;20469;55.638;37.670;2023-08-21T05:50:32;6.13;;;2.30;;
34200;SDS011;20469;55.638;37.670;2023-08-21T05:53:03;3.65;;;2.03;;
34200;SDS011;20469;55.638;37.670;2023-08-21T05:55:31;2.40;;;1.80;;
34200;SDS011;20469;55.638;37.670;2023-08-21T05:57:59;5.03;;;2.00;;
34200;SDS011;20469;55.638;37.670;2023-08-21T06:00:27;6.07;;;2.10;;
34200;SDS011;20469;55.638;37.670;2023-08-21T06:02:54;3.35;;;2.03;;
34200;SDS011;20469;55.638;37.670;2023-08-21T06:05:22;4.57;;;2.08;;
34200;SDS011;20469;55.638;37.670;2023-08-21T06:07:50;4.15;;;2.20;;
34200;SDS011;20469;55.638;37.670;2023-08-21T06:10:18;4.72;;;2.00;;
34200;SDS011;20469;55.638;37.670;2023-08-21T06:12:46;6.47;;;2.10;;
34200;SDS011;20469;55.638;37.670;2023-08-21T06:15:14;6.30;;;2.08;;
34200;SDS011;20469;55.638;37.670;2023-08-21T06:17:42;8.48;;;2.22;;
34200;SDS011;20469;55.638;37.670;2023-08-21T06:20:13;4.25;;;2.38;;
34200;SDS011;20469;55.638;37.670;2023-08-21T06:22:40;6.65;;;2.10;;
34200;SDS011;20469;55.638;37.670;2023-08-21T06:25:08;5.68;;;1.88;;
34200;SDS011;20469;55.638;37.670;2023-08-21T06:27:36;4.90;;;1.70;;
34200;SDS011;20469;55.638;37.670;2023-08-21T06:30:21;4.13;;;1.77;;
34200;SDS011;20469;55.638;37.670;2023-08-21T06:32:49;2.80;;;1.80;;
34200;SDS011;20469;55.638;37.670;2023-08-21T06:35:17;4.40;;;1.83;;
34200;SDS011;20469;55.638;37.670;2023-08-21T06:37:44;4.00;;;1.75;;
34200;SDS011;20469;55.638;37.670;2023-08-21T06:40:12;2.10;;;1.75;;
34200;SDS011;20469;55.638;37.670;2023-08-21T06:42:40;2.95;;;1.67;;
34200;SDS011;20469;55.638;37.670;2023-08-21T06:45:07;2.65;;;1.70;;
34200;SDS011;20469;55.638;37.670;2023-08-21T06:47:35;4.50;;;1.50;;
34200;SDS011;20469;55.638;37.670;2023-08-21T06:50:03;2.72;;;1.38;;
34200;SDS011;20469;55.638;37.670;2023-08-21T06:52:30;3.10;;;1.70;;
34200;SDS011;20469;55.638;37.670;2023-08-21T06:54:58;4.32;;;1.83;;
34200;SDS011;20469;55.638;37.670;2023-08-21T06:57:25;3.92;;;1.67;;
34200;SDS011;20469;55.638;37.670;2023-08-21T06:59:53;4.65;;;1.60;;
34200;SDS011;20469;55.638;37.670;2023-08-21T07:02:21;2.88;;;1.70;;
34200;SDS011;20469;55.638;37.670;2023-08-21T07:04:48;2.40;;;1.70;;
34200;SDS011;20469;55.638;37.670;2023-08-21T07:07:16;3.55;;;1.73;;
34200;SDS011;20469;55.638;37.670;2023-08-21T07:09:43;2.20;;;1.52;;
34200;SDS011;20469;55.638;37.670;2023-08-21T07:12:11;3.45;;;1.42;;
34200;SDS011;20469;55.638;37.670;2023-08-21T07:14:39;2.40;;;1.50;;
34200;SDS011;20469;55.638;37.670;2023-08-21T07:17:06;3.92;;;1.75;;
34200;SDS011;20469;55.638;37.670;2023-08-21T07:19:34;3.83;;;1.55;;
34200;SDS011;20469;55.638;37.670;2023-08-21T07:22:02;3.72;;;1.52;;
34200;SDS011;20469;55.638;37.670;2023-08-21T07:24:29;4.05;;;1.83;;
34200;SDS011;20469;55.638;37.670;2023-08-21T07:26:57;2.63;;;1.50;;
34200;SDS011;20469;55.638;37.670;2023-08-21T07:29:25;2.85;;;1.42;;
34200;SDS011;20469;55.638;37.670;2023-08-21T07:31:52;6.97;;;1.80;;
34200;SDS011;20469;55.638;37.670;2023-08-21T07:34:20;3.42;;;1.67;;
34200;SDS011;20469;55.638;37.670;2023-08-21T07:36:48;6.20;;;1.90;;
34200;SDS011;20469;55.638;37.670;2023-08-21T07:39:15;3.22;;;1.67;;
34200;SDS011;20469;55.638;37.670;2023-08-21T07:41:43;5.13;;;1.95;;
34200;SDS011;20469;55.638;37.670;2023-08-21T07:44:11;2.95;;;1.80;;
34200;SDS011;20469;55.638;37.670;2023-08-21T07:46:38;5.28;;;1.70;;
34200;SDS011;20469;55.638;37.670;2023-08-21T07:49:06;6.28;;;2.13;;
34200;SDS011;20469;55.638;37.670;2023-08-21T07:51:34;6.28;;;2.10;;
34200;SDS011;20469;55.638;37.670;2023-08-21T07:54:01;3.10;;;1.52;;
34200;SDS011;20469;55.638;37.670;2023-08-21T07:56:29;3.90;;;1.70;;
34200;SDS011;20469;55.638;37.670;2023-08-21T07:58:57;3.05;;;1.83;;
34200;SDS011;20469;55.638;37.670;2023-08-21T08:01:24;5.00;;;1.73;;
34200;SDS011;20469;55.638;37.670;2023-08-21T08:03:52;3.67;;;1.83;;
34200;SDS011;20469;55.638;37.670;2023-08-21T08:06:21;3.75;;;1.80;;
34200;SDS011;20469;55.638;37.670;2023-08-21T08:08:49;4.10;;;1.88;;
34200;SDS011;20469;55.638;37.670;2023-08-21T08:11:17;4.05;;;1.70;;
34200;SDS011;20469;55.638;37.670;2023-08-21T08:13:45;4.68;;;1.65;;
34200;SDS011;20469;55.638;37.670;2023-08-21T08:16:12;2.88;;;1.75;;
34200;SDS011;20469;55.638;37.670;2023-08-21T08:18:40;4.00;;;1.50;;
34200;SDS011;20469;55.638;37.670;2023-08-21T08:21:08;2.70;;;1.30;;
34200;SDS011;20469;55.638;37.670;2023-08-21T08:23:37;5.15;;;1.80;;
34200;SDS011;20469;55.638;37.670;2023-08-21T08:26:04;3.33;;;1.80;;
34200;SDS011;20469;55.638;37.670;2023-08-21T08:28:32;6.25;;;1.95;;
34200;SDS011;20469;55.638;37.670;2023-08-21T08:31:00;4.65;;;2.38;;
34200;SDS011;20469;55.638;37.670;2023-08-21T08:33:29;3.28;;;2.00;;
34200;SDS011;20469;55.638;37.670;2023-08-21T08:35:56;16.20;;;12.65;;
34200;SDS011;20469;55.638;37.670;2023-08-21T08:38:24;5.18;;;2.35;;
34200;SDS011;20469;55.638;37.670;2023-08-21T08:40:52;3.20;;;1.52;;
34200;SDS011;20469;55.638;37.670;2023-08-21T08:43:21;2.10;;;1.50;;
34200;SDS011;20469;55.638;37.670;2023-08-21T08:45:52;3.28;;;1.83;;
34200;SDS011;20469;55.638;37.670;2023-08-21T08:48:20;2.17;;;1.63;;
34200;SDS011;20469;55.638;37.670;2023-08-21T08:50:48;3.60;;;1.65;;
34200;SDS011;20469;55.638;37.670;2023-08-21T08:53:18;9.30;;;6.28;;
34200;SDS011;20469;55.638;37.670;2023-08-21T08:55:46;2.88;;;2.13;;
34200;SDS011;20469;55.638;37.670;2023-08-21T08:58:13;6.63;;;1.90;;
34200;SDS011;20469;55.638;37.670;2023-08-21T09:00:41;2.22;;;1.73;;
34200;SDS011;20469;55.638;37.670;2023-08-21T09:03:09;3.03;;;1.60;;
34200;SDS011;20469;55.638;37.670;2023-08-21T09:05:39;4.13;;;1.70;;
34200;SDS011;20469;55.638;37.670;2023-08-21T09:08:11;2.95;;;1.70;;
34200;SDS011;20469;55.638;37.670;2023-08-21T09:10:39;3.40;;;1.50;;
34200;SDS011;20469;55.638;37.670;2023-08-21T09:13:14;2.47;;;1.50;;
34200;SDS011;20469;55.638;37.670;2023-08-21T09:15:44;6.50;;;1.80;;
34200;SDS011;20469;55.638;37.670;2023-08-21T09:18:14;3.33;;;1.58;;
34200;SDS011;20469;55.638;37.670;2023-08-21T09:20:43;2.70;;;1.60;;
34200;SDS011;20469;55.638;37.670;2023-08-21T09:23:14;4.07;;;1.70;;
34200;SDS011;20469;55.638;37.670;2023-08-21T09:25:43;3.97;;;1.67;;
34200;SDS011;20469;55.638;37.670;2023-08-21T09:28:15;3.30;;;1.50;;
34200;SDS011;20469;55.638;37.670;2023-08-21T09:30:47;3.50;;;2.03;;
34200;SDS011;20469;55.638;37.670;2023-08-21T09:33:19;8.57;;;2.80;;
34200;SDS011;20469;55.638;37.670;2023-08-21T09:35:51;4.35;;;1.90;;
34200;SDS011;20469;55.638;37.670;2023-08-21T09:38:19;3.80;;;1.55;;
34200;SDS011;20469;55.638;37.670;2023-08-21T09:40:50;2.25;;;1.70;;
34200;SDS011;20469;55.638;37.670;2023-08-21T09:43:19;4.27;;;1.60;;
34200;SDS011;20469;55.638;37.670;2023-08-21T09:45:47;5.35;;;1.60;;
34200;SDS011;20469;55.638;37.670;2023-08-21T09:48:15;3.38;;;1.70;;
34200;SDS011;20469;55.638;37.670;2023-08-21T09:50:44;3.33;;;1.50;;
34200;SDS011;20469;55.638;37.670;2023-08-21T09:53:13;2.83;;;1.80;;
34200;SDS011;20469;55.638;37.670;2023-08-21T09:55:56;2.08;;;1.42;;
34200;SDS011;20469;55.638;37.670;2023-08-21T09:58:24;5.45;;;1.83;;
34200;SDS011;20469;55.638;37.670;2023-08-21T10:00:51;4.10;;;2.30;;
34200;SDS011;20469;55.638;37.670;2023-08-21T10:03:24;4.93;;;2.55;;
34200;SDS011;20469;55.638;37.670;2023-08-21T10:05:54;7.72;;;3.42;;
34200;SDS011;20469;55.638;37.670;2023-08-21T10:08:23;3.53;;;2.00;;
34200;SDS011;20469;55.638;37.670;2023-08-21T10:10:53;3.55;;;2.53;;
34200;SDS011;20469;55.638;37.670;2023-08-21T10:13:21;5.40;;;1.85;;
34200;SDS011;20469;55.638;37.670;2023-08-21T10:15:48;2.55;;;1.85;;
34200;SDS011;20469;55.638;37.670;2023-08-21T10:18:32;3.75;;;1.70;;
34200;SDS011;20469;55.638;37.670;2023-08-21T10:21:14;6.60;;;2.38;;
34200;SDS011;20469;55.638;37.670;2023-08-21T10:23:42;7.32;;;2.05;;
34200;SDS011;20469;55.638;37.670;2023-08-21T10:26:13;2.97;;;2.00;;
34200;SDS011;20469;55.638;37.670;2023-08-21T10:34:05;5.38;;;3.08;;
34200;SDS011;20469;55.638;37.670;2023-08-21T10:41:53;3.55;;;2.28;;
34200;SDS011;20469;55.638;37.670;2023-08-21T10:47:21;2.88;;;1.40;;
34200;SDS011;20469;55.638;37.670;2023-08-21T10:49:54;2.90;;;2.03;;
34200;SDS011;20469;55.638;37.670;2023-08-21T10:52:23;3.70;;;1.45;;
34200;SDS011;20469;55.638;37.670;2023-08-21T10:54:55;3.30;;;1.40;;
34200;SDS011;20469;55.638;37.670;2023-08-21T10:57:23;2.08;;;1.80;;
34200;SDS011;20469;55.638;37.670;2023-08-21T11:00:02;4.05;;;1.50;;
34200;SDS011;20469;55.638;37.670;2023-08-21T11:02:32;3.77;;;1.80;;
34200;SDS011;20469;55.638;37.670;2023-08-21T11:05:00;3.30;;;1.80;;
34200;SDS011;20469;55.638;37.670;2023-08-21T11:07:32;3.58;;;1.85;;
34200;SDS011;20469;55.638;37.670;2023-08-21T11:10:05;2.45;;;1.42;;
34200;SDS011;20469;55.638;37.670;2023-08-21T11:12:37;2.63;;;2.20;;
34200;SDS011;20469;55.638;37.670;2023-08-21T11:15:05;2.65;;;2.03;;
34200;SDS011;20469;55.638;37.670;2023-08-21T11:17:33;2.00;;;1.80;;
34200;SDS011;20469;55.638;37.670;2023-08-21T11:20:01;2.05;;;1.40;;
34200;SDS011;20469;55.638;37.670;2023-08-21T11:22:31;2.97;;;1.25;;
34200;SDS011;20469;55.638;37.670;2023-08-21T11:24:59;3.38;;;1.50;;
34200;SDS011;20469;55.638;37.670;2023-08-21T11:27:28;3.20;;;1.75;;
34200;SDS011;20469;55.638;37.670;2023-08-21T11:29:56;2.00;;;1.30;;
34200;SDS011;20469;55.638;37.670;2023-08-21T11:32:24;2.10;;;1.60;;
34200;SDS011;20469;55.638;37.670;2023-08-21T11:34:53;4.03;;;1.63;;
34200;SDS011;20469;55.638;37.670;2023-08-21T11:37:22;2.42;;;1.48;;
34200;SDS011;20469;55.638;37.670;2023-08-21T11:39:51;4.07;;;1.50;;
34200;SDS011;20469;55.638;37.670;2023-08-21T11:42:22;2.97;;;1.60;;
34200;SDS011;20469;55.638;37.670;2023-08-21T11:44:56;5.55;;;1.42;;
34200;SDS011;20469;55.638;37.670;2023-08-21T11:47:29;3.08;;;1.70;;
34200;SDS011;20469;55.638;37.670;2023-08-21T11:49:57;3.92;;;1.38;;
34200;SDS011;20469;55.638;37.670;2023-08-21T11:52:30;3.97;;;1.65;;
34200;SDS011;20469;55.638;37.670;2023-08-21T11:54:58;4.40;;;1.48;;
34200;SDS011;20469;55.638;37.670;2023-08-21T11:57:26;4.75;;;1.50;;
34200;SDS011;20469;55.638;37.670;2023-08-21T11:59:56;4.82;;;1.27;;
34200;SDS011;20469;55.638;37.670;2023-08-21T12:02:24;3.67;;;1.40;;
34200;SDS011;20469;55.638;37.670;2023-08-21T12:04:53;3.25;;;1.52;;
34200;SDS011;20469;55.638;37.670;2023-08-21T12:07:21;2.35;;;1.60;;
34200;SDS011;20469;55.638;37.670;2023-08-21T12:09:48;3.20;;;1.75;;
34200;SDS011;20469;55.638;37.670;2023-08-21T12:12:16;4.20;;;1.30;;
34200;SDS011;20469;55.638;37.670;2023-08-21T12:14:45;1.55;;;1.40;;
34200;SDS011;20469;55.638;37.670;2023-08-21T12:17:13;2.03;;;1.50;;
34200;SDS011;20469;55.638;37.670;2023-08-21T12:19:41;2.15;;;1.65;;
34200;SDS011;20469;55.638;37.670;2023-08-21T12:22:10;6.03;;;1.80;;
34200;SDS011;20469;55.638;37.670;2023-08-21T12:24:38;2.67;;;1.70;;
34200;SDS011;20469;55.638;37.670;2023-08-21T12:27:06;1.77;;;1.50;;
34200;SDS011;20469;55.638;37.670;2023-08-21T12:29:34;3.45;;;1.73;;
34200;SDS011;20469;55.638;37.670;2023-08-21T12:32:02;3.80;;;1.60;;
34200;SDS011;20469;55.638;37.670;2023-08-21T12:34:30;4.30;;;2.00;;
34200;SDS011;20469;55.638;37.670;2023-08-21T12:36:57;3.38;;;1.70;;
34200;SDS011;20469;55.638;37.670;2023-08-21T12:39:25;7.30;;;1.73;;
34200;SDS011;20469;55.638;37.670;2023-08-21T12:41:53;4.70;;;1.65;;
34200;SDS011;20469;55.638;37.670;2023-08-21T12:44:21;3.90;;;1.65;;
34200;SDS011;20469;55.638;37.670;2023-08-21T12:46:48;1.95;;;1.50;;
34200;SDS011;20469;55.638;37.670;2023-08-21T12:49:20;1.45;;;1.35;;
34200;SDS011;20469;55.638;37.670;2023-08-21T12:51:48;3.03;;;1.50;;
34200;SDS011;20469;55.638;37.670;2023-08-21T12:54:16;3.15;;;1.70;;
34200;SDS011;20469;55.638;37.670;2023-08-21T12:56:43;3.50;;;1.58;;
34200;SDS011;20469;55.638;37.670;2023-08-21T12:59:12;3.47;;;1.40;;
34200;SDS011;20469;55.638;37.670;2023-08-21T13:04:11;3.08;;;1.60;;
34200;SDS011;20469;55.638;37.670;2023-08-21T13:06:38;4.88;;;1.40;;
34200;SDS011;20469;55.638;37.670;2023-08-21T13:09:06;2.03;;;1.60;;
34200;SDS011;20469;55.638;37.670;2023-08-21T13:11:34;6.25;;;1.85;;
34200;SDS011;20469;55.638;37.670;2023-08-21T13:14:02;5.55;;;2.00;;
34200;SDS011;20469;55.638;37.670;2023-08-21T13:16:30;6.85;;;1.77;;
34200;SDS011;20469;55.638;37.670;2023-08-21T13:18:57;4.13;;;1.58;;
34200;SDS011;20469;55.638;37.670;2023-08-21T13:21:25;2.33;;;1.38;;
34200;SDS011;20469;55.638;37.670;2023-08-21T13:23:52;4.82;;;1.70;;
34200;SDS011;20469;55.638;37.670;2023-08-21T13:26:20;5.00;;;1.52;;
34200;SDS011;20469;55.638;37.670;2023-08-21T13:28:48;5.28;;;1.67;;
34200;SDS011;20469;55.638;37.670;2023-08-21T13:31:16;4.57;;;1.55;;
34200;SDS011;20469;55.638;37.670;2023-08-21T13:33:47;3.05;;;1.60;;
34200;SDS011;20469;55.638;37.670;2023-08-21T13:36:17;4.07;;;1.40;;
34200;SDS011;20469;55.638;37.670;2023-08-21T13:38:45;4.55;;;1.60;;
34200;SDS011;20469;55.638;37.670;2023-08-21T13:41:13;3.35;;;1.50;;
34200;SDS011;20469;55.638;37.670;2023-08-21T13:43:40;2.05;;;1.40;;
34200;SDS011;20469;55.638;37.670;2023-08-21T13:46:12;3.78;;;1.60;;
34200;SDS011;20469;55.638;37.670;2023-08-21T13:48:39;3.25;;;1.50;;
34200;SDS011;20469;55.638;37.670;2023-08-21T13:51:07;4.53;;;1.63;;
34200;SDS011;20469;55.638;37.670;2023-08-21T13:53:34;3.80;;;1.55;;
34200;SDS011;20469;55.638;37.670;2023-08-21T13:56:02;2.05;;;1.67;;
34200;SDS011;20469;55.638;37.670;2023-08-21T13:58:30;3.05;;;1.60;;
34200;SDS011;20469;55.638;37.670;2023-08-21T14:00:57;2.38;;;1.60;;
34200;SDS011;20469;55.638;37.670;2023-08-21T14:03:25;2.63;;;1.60;;
34200;SDS011;20469;55.638;37.670;2023-08-21T14:05:53;5.88;;;1.67;;
34200;SDS011;20469;55.638;37.670;2023-08-21T14:08:24;5.35;;;1.88;;
34200;SDS011;20469;55.638;37.670;2023-08-21T14:10:51;3.17;;;1.67;;
34200;SDS011;20469;55.638;37.670;2023-08-21T14:13:19;2.50;;;1.50;;
34200;SDS011;20469;55.638;37.670;2023-08-21T14:15:46;4.10;;;1.95;;
34200;SDS011;20469;55.638;37.670;2023-08-21T14:18:14;4.07;;;3.67;;
34200;SDS011;20469;55.638;37.670;2023-08-21T14:20:42;3.88;;;2.08;;
34200;SDS011;20469;55.638;37.670;2023-08-21T14:23:09;5.88;;;2.47;;
34200;SDS011;20469;55.638;37.670;2023-08-21T14:25:38;3.67;;;2.40;;
34200;SDS011;20469;55.638;37.670;2023-08-21T14:28:05;4.40;;;2.20;;
34200;SDS011;20469;55.638;37.670;2023-08-21T14:30:33;3.72;;;2.72;;
34200;SDS011;20469;55.638;37.670;2023-08-21T14:33:01;2.15;;;1.83;;
34200;SDS011;20469;55.638;37.670;2023-08-21T14:35:29;4.68;;;2.22;;
34200;SDS011;20469;55.638;37.670;2023-08-21T14:37:57;5.15;;;1.98;;
34200;SDS011;20469;55.638;37.670;2023-08-21T14:40:24;4.00;;;2.00;;
34200;SDS011;20469;55.638;37.670;2023-08-21T14:42:52;6.50;;;2.28;;
34200;SDS011;20469;55.638;37.670;2023-08-21T14:45:20;6.57;;;2.17;;
34200;SDS011;20469;55.638;37.670;2023-08-21T14:47:48;2.40;;;1.88;;
34200;SDS011;20469;55.638;37.670;2023-08-21T14:50:16;4.53;;;2.05;;
34200;SDS011;20469;55.638;37.670;2023-08-21T14:52:43;5.15;;;1.80;;
34200;SDS011;20469;55.638;37.670;2023-08-21T14:55:11;3.08;;;1.90;;
34200;SDS011;20469;55.638;37.670;2023-08-21T14:57:39;3.70;;;1.75;;